Current Weather

Greater Kankakee

Kankakee, Illinois (KIKK)

Report from: Monday, February 6, 2023 12:55 AM CST
Current time: Monday, February 6, 2023 1:09 AM CST

Nearby weather
Weather history
Weather forecast

Temperature-3.3°C (26.1°F)
Dew point-4.7°C (23.5°F)
Winds Calm
Visibility10 mi. (16.1 km)
Clouds Sky clear
Altimeter30.19 in.Hg (1022 mB)
Relative humidity90 %
Density altitude-2,496 ft. (-761 m)
Remarks Fully automated report
Automated weather observing station with precipitation discriminator
Flight conditions Visual Meteorological Conditions
Raw dataKIKK 060655Z AUTO 00000KT 10SM CLR M03/M05 A3019 RMK AO2 T10331047
An error has occurred. This application may no longer respond until reloaded. Reload 🗙